Time;durP1;ratioP1;P1;durP2;ratioP2;P2;SDS_P1;SDS_P2;PMS_P1;PMS_P2;Temp;Humidity;BMP_temperature;BMP_pressure;BME280_temperature;BME280_humidity;BME280_pressure;Samples;Min_cycle;Max_cycle;Signal;HPM_P1;HPM_P2
2022/07/05 00:01:52;;;;;;;5.13;1.63;;;;;;;16.44;78.56;101993.06;5074681;28;20115;-58
2022/07/05 00:04:20;;;;;;;5.53;1.77;;;;;;;16.40;78.96;101989.75;5074419;28;20049;-53
2022/07/05 00:09:34;;;;;;;2.53;1.55;;;;;;;16.35;80.46;101999.88;5066889;28;20059;-58
2022/07/05 00:12:03;;;;;;;4.18;1.50;;;;;;;16.23;81.86;101996.28;5074340;28;20127;-51
2022/07/05 00:14:31;;;;;;;3.72;1.42;;;;;;;16.29;81.57;102000.31;5074238;28;20045;-52
2022/07/05 00:16:59;;;;;;;2.95;1.42;;;;;;;16.29;81.89;101997.66;5072984;28;20063;-57
2022/07/05 00:19:27;;;;;;;4.63;1.63;;;;;;;16.19;82.10;101994.81;5074432;28;20040;-57
2022/07/05 00:21:55;;;;;;;3.42;1.55;;;;;;;16.15;82.37;101993.34;5071582;28;20092;-57
2022/07/05 00:24:23;;;;;;;4.45;1.60;;;;;;;16.11;82.95;101992.69;5072071;28;20048;-59
2022/07/05 00:26:53;;;;;;;6.18;1.80;;;;;;;16.04;82.57;101989.63;5073610;28;20052;-49
2022/07/05 00:29:21;;;;;;;4.47;1.83;;;;;;;16.08;82.48;101989.44;5070476;28;20036;-49
2022/07/05 00:31:49;;;;;;;3.55;1.52;;;;;;;15.80;84.59;101992.22;5069277;28;20082;-49
2022/07/05 00:34:17;;;;;;;3.90;1.60;;;;;;;15.89;84.02;101985.41;5073813;28;20438;-50
2022/07/05 00:36:45;;;;;;;3.63;1.70;;;;;;;15.87;84.83;101990.81;5073261;28;20044;-53
2022/07/05 00:39:13;;;;;;;4.28;1.75;;;;;;;15.86;85.66;101993.59;5073178;28;20044;-49
2022/07/05 00:41:42;;;;;;;2.88;1.73;;;;;;;15.82;85.71;101995.59;5070961;28;20101;-52
2022/07/05 00:44:13;;;;;;;3.15;1.73;;;;;;;15.83;84.73;101988.50;5069824;28;20044;-58
2022/07/05 00:46:44;;;;;;;3.22;1.55;;;;;;;15.75;86.75;101983.69;5073830;28;20051;-52
2022/07/05 00:49:14;;;;;;;3.22;1.70;;;;;;;15.57;88.13;101990.25;5073266;28;20046;-59
2022/07/05 00:51:42;;;;;;;2.50;1.40;;;;;;;15.46;88.65;101991.84;5073443;28;20131;-58
2022/07/05 00:54:33;;;;;;;5.35;2.13;;;;;;;15.44;88.70;101991.06;5073168;28;20047;-58
2022/07/05 00:57:02;;;;;;;4.07;1.92;;;;;;;15.52;88.30;101983.44;5073093;28;20095;-58
2022/07/05 00:59:32;;;;;;;3.33;1.70;;;;;;;15.48;88.69;101986.41;5072523;28;20455;-51
2022/07/05 01:02:01;;;;;;;3.25;1.63;;;;;;;15.52;89.20;101979.97;5072533;28;20088;-52
2022/07/05 01:04:29;;;;;;;3.60;1.83;;;;;;;15.40;89.99;101981.63;5072623;28;20052;-58
2022/07/05 01:06:57;;;;;;;4.30;1.80;;;;;;;15.37;90.34;101989.78;5071049;28;20790;-53
2022/07/05 01:09:25;;;;;;;3.63;1.92;;;;;;;15.27;90.96;101994.00;5070901;28;20040;-58
2022/07/05 01:11:54;;;;;;;4.65;2.08;;;;;;;15.32;90.24;101992.75;5072922;28;20456;-58
2022/07/05 01:14:23;;;;;;;5.65;2.28;;;;;;;15.34;91.02;101997.97;5072876;28;20048;-58
2022/07/05 01:16:54;;;;;;;4.45;1.88;;;;;;;15.27;91.83;101999.31;5072631;28;20120;-52
2022/07/05 01:19:23;;;;;;;5.82;2.40;;;;;;;15.20;92.08;101993.56;5072745;28;20051;-58
2022/07/05 01:21:52;;;;;;;4.15;1.75;;;;;;;15.20;91.74;102002.38;5067893;28;20055;-51
2022/07/05 01:24:21;;;;;;;6.00;2.20;;;;;;;15.23;91.65;101998.69;5070733;28;20068;-54
2022/07/05 01:26:50;;;;;;;4.97;2.25;;;;;;;15.10;92.63;101998.63;5072822;28;20056;-51
2022/07/05 01:29:19;;;;;;;6.70;2.40;;;;;;;15.19;91.98;101997.19;5073067;28;20051;-58
2022/07/05 01:31:47;;;;;;;7.57;2.75;;;;;;;15.02;93.70;101990.34;5072798;28;20454;-53
2022/07/05 01:34:15;;;;;;;5.60;2.85;;;;;;;15.09;93.51;101996.91;5072765;28;20036;-58
2022/07/05 01:36:43;;;;;;;4.90;2.67;;;;;;;14.98;94.16;101988.84;5072619;28;20098;-55
2022/07/05 01:39:11;;;;;;;5.13;2.47;;;;;;;14.98;93.99;101986.19;5070769;28;20056;-57
2022/07/05 01:41:41;;;;;;;6.97;2.38;;;;;;;15.02;93.48;101993.84;5072358;28;20207;-58
2022/07/05 01:44:09;;;;;;;5.90;2.60;;;;;;;14.95;93.81;102002.28;5072554;28;20454;-51
2022/07/05 01:46:39;;;;;;;5.65;2.70;;;;;;;14.93;94.32;102002.41;5072836;28;20090;-58
2022/07/05 01:49:11;;;;;;;8.77;3.20;;;;;;;14.82;94.91;101995.16;5072804;28;20557;-58
2022/07/05 01:51:45;;;;;;;9.35;3.30;;;;;;;14.74;95.36;101996.56;5071788;28;20114;-54
2022/07/05 01:54:14;;;;;;;6.82;3.22;;;;;;;14.70;95.67;102002.09;5072076;28;20071;-51
2022/07/05 01:56:43;;;;;;;7.13;3.28;;;;;;;14.76;95.67;102000.00;5072174;28;20044;-57
2022/07/05 01:59:12;;;;;;;6.00;2.95;;;;;;;14.75;96.07;102000.94;5072777;28;20454;-57
2022/07/05 02:01:41;;;;;;;5.82;2.78;;;;;;;14.70;96.96;101998.59;5072163;28;20437;-54
2022/07/05 02:04:10;;;;;;;5.68;3.08;;;;;;;14.73;96.26;101989.59;5072316;28;20135;-52
2022/07/05 02:06:39;;;;;;;6.85;3.08;;;;;;;14.66;96.98;101987.34;5072477;28;20454;-58
2022/07/05 02:09:08;;;;;;;8.07;3.00;;;;;;;14.61;96.66;101992.03;5072322;28;20052;-51
2022/07/05 02:11:36;;;;;;;6.13;3.13;;;;;;;14.55;97.39;101984.50;5071915;28;20139;-50
2022/07/05 02:14:05;;;;;;;5.97;2.75;;;;;;;14.48;98.21;101985.81;5069806;28;20053;-52
2022/07/05 02:16:33;;;;;;;7.97;3.35;;;;;;;14.45;98.62;101980.75;5069087;28;20053;-51
2022/07/05 02:19:02;;;;;;;6.38;2.80;;;;;;;14.47;98.36;101989.44;5070872;28;20115;-59
2022/07/05 02:21:30;;;;;;;5.78;2.92;;;;;;;14.41;99.32;101988.03;5072768;28;20087;-58
2022/07/05 02:23:58;;;;;;;6.68;3.35;;;;;;;14.39;99.62;101984.63;5071956;28;20120;-57
2022/07/05 02:26:26;;;;;;;5.82;3.15;;;;;;;14.34;99.36;101989.34;5070880;28;20106;-57
2022/07/05 02:28:54;;;;;;;5.65;2.58;;;;;;;14.37;99.95;101990.03;5071686;28;20064;-58
2022/07/05 02:31:24;;;;;;;5.78;2.78;;;;;;;14.43;99.93;101985.28;5071483;28;20040;-50
2022/07/05 02:33:52;;;;;;;7.68;3.00;;;;;;;14.51;99.28;101983.00;5071416;28;20049;-58
2022/07/05 02:36:21;;;;;;;7.03;3.28;;;;;;;14.32;100.00;101994.75;5072157;28;20059;-58
2022/07/05 02:38:49;;;;;;;6.50;3.30;;;;;;;14.34;100.00;101989.34;5071898;28;20550;-58
2022/07/05 02:41:17;;;;;;;7.53;4.13;;;;;;;14.27;100.00;101991.53;5072473;28;20045;-58
2022/07/05 02:43:45;;;;;;;7.53;3.20;;;;;;;14.31;100.00;101994.84;5068688;28;20499;-53
2022/07/05 02:46:13;;;;;;;6.07;3.60;;;;;;;14.37;100.00;101990.03;5071804;28;20136;-58
2022/07/05 02:48:43;;;;;;;7.30;3.65;;;;;;;14.20;100.00;101995.53;5075582;28;20495;-50
2022/07/05 02:51:11;;;;;;;7.32;3.80;;;;;;;14.21;100.00;101997.22;5074742;28;20125;-50
2022/07/05 02:53:39;;;;;;;8.02;4.10;;;;;;;14.25;100.00;101998.72;5074644;28;20048;-56
2022/07/05 02:56:08;;;;;;;6.57;3.63;;;;;;;14.24;100.00;102010.25;5074725;28;20049;-59
2022/07/05 02:58:38;;;;;;;7.55;3.38;;;;;;;14.24;100.00;102007.59;5074779;28;20037;-58
2022/07/05 03:01:06;;;;;;;7.45;3.70;;;;;;;14.27;100.00;102007.41;5074117;28;20067;-50
2022/07/05 03:03:34;;;;;;;9.00;4.30;;;;;;;14.15;100.00;102000.22;5074744;28;20052;-51
2022/07/05 03:06:03;;;;;;;8.05;3.85;;;;;;;14.01;100.00;101996.66;5074849;28;20048;-58
2022/07/05 03:08:31;;;;;;;8.32;4.05;;;;;;;14.03;100.00;101999.22;5075696;28;20101;-58
2022/07/05 03:11:00;;;;;;;7.30;3.42;;;;;;;14.07;100.00;102000.72;5074880;28;20450;-58
2022/07/05 03:13:28;;;;;;;7.53;3.67;;;;;;;14.03;100.00;102007.16;5075840;28;20072;-51
2022/07/05 03:15:56;;;;;;;5.95;3.65;;;;;;;14.07;100.00;102018.38;5071553;28;20052;-53
2022/07/05 03:18:24;;;;;;;8.02;4.03;;;;;;;14.10;100.00;102018.22;5065877;28;20032;-52
2022/07/05 03:20:53;;;;;;;7.03;3.80;;;;;;;14.12;100.00;102024.25;5071505;28;20502;-50
2022/07/05 03:23:23;;;;;;;7.00;3.95;;;;;;;14.10;100.00;102019.06;5073967;28;20040;-52
2022/07/05 03:25:51;;;;;;;9.30;4.22;;;;;;;14.11;100.00;102020.75;5070108;28;20106;-53
2022/07/05 03:28:19;;;;;;;7.25;4.15;;;;;;;14.19;100.00;102022.91;5072792;28;20492;-58
2022/07/05 03:30:47;;;;;;;8.00;4.10;;;;;;;14.23;100.00;102024.41;5074441;28;20388;-52
2022/07/05 03:33:15;;;;;;;7.32;3.50;;;;;;;14.22;100.00;102020.09;5073852;28;20032;-52
2022/07/05 03:35:43;;;;;;;7.55;4.00;;;;;;;14.24;100.00;102026.13;5073935;28;20098;-50
2022/07/05 03:38:11;;;;;;;8.00;3.78;;;;;;;14.23;100.00;102026.22;5074643;28;20272;-52
2022/07/05 03:40:40;;;;;;;10.32;4.57;;;;;;;14.28;100.00;102027.63;5074270;28;20086;-53
2022/07/05 03:43:09;;;;;;;7.15;3.97;;;;;;;14.31;100.00;102026.59;5073416;28;20048;-52
2022/07/05 03:45:37;;;;;;;7.07;4.25;;;;;;;14.24;100.00;102023.47;5070145;28;20052;-58
2022/07/05 03:48:05;;;;;;;9.10;4.53;;;;;;;14.33;100.00;102024.72;5073280;28;20166;-49
2022/07/05 03:50:53;;;;;;;7.72;4.38;;;;;;;14.37;100.00;102031.53;5068235;28;20158;-47
2022/07/05 03:53:22;;;;;;;9.60;5.22;;;;;;;14.34;100.00;102031.69;5073494;28;20079;-53
2022/07/05 03:55:51;;;;;;;11.90;5.30;;;;;;;14.36;100.00;102035.94;5074481;28;20045;-59
2022/07/05 03:58:19;;;;;;;8.52;5.22;;;;;;;14.43;100.00;102035.56;5072941;28;20059;-58
2022/07/05 04:00:48;;;;;;;8.80;5.10;;;;;;;14.53;100.00;102036.69;5074300;28;20060;-52
2022/07/05 04:03:16;;;;;;;8.93;4.88;;;;;;;14.47;100.00;102037.09;5071951;28;20082;-58
2022/07/05 04:05:44;;;;;;;7.07;4.88;;;;;;;14.53;100.00;102036.69;5072685;28;20056;-51
2022/07/05 04:08:12;;;;;;;7.25;5.13;;;;;;;14.46;100.00;102032.72;5072938;28;20052;-58
2022/07/05 04:10:40;;;;;;;8.40;5.47;;;;;;;14.50;100.00;102036.88;5074524;28;20048;-58
2022/07/05 04:13:09;;;;;;;8.52;5.00;;;;;;;14.66;100.00;102029.69;5073878;28;20044;-58
2022/07/05 04:15:37;;;;;;;10.30;5.28;;;;;;;14.67;100.00;102030.53;5074270;28;20036;-58
2022/07/05 04:18:06;;;;;;;8.38;5.18;;;;;;;14.69;100.00;102042.72;5074026;28;20048;-50
2022/07/05 04:20:34;;;;;;;9.00;5.80;;;;;;;14.65;100.00;102046.53;5074464;28;20049;-58
2022/07/05 04:23:02;;;;;;;9.20;5.47;;;;;;;14.76;100.00;102053.78;5074369;28;20369;-58
2022/07/05 04:25:30;;;;;;;11.05;6.43;;;;;;;14.78;100.00;102048.38;5072185;28;20061;-53
2022/07/05 04:27:58;;;;;;;10.18;5.38;;;;;;;14.86;100.00;102043.44;5071698;28;20041;-51
2022/07/05 04:30:27;;;;;;;9.32;6.10;;;;;;;14.97;100.00;102045.41;5073072;28;20192;-52
2022/07/05 04:32:55;;;;;;;12.32;5.80;;;;;;;14.97;100.00;102046.28;5060879;28;20044;-51
2022/07/05 04:35:24;;;;;;;9.98;5.88;;;;;;;15.01;100.00;102045.13;5069351;28;20068;-51
2022/07/05 04:37:52;;;;;;;9.57;5.85;;;;;;;15.07;100.00;102041.22;5072983;28;20043;-53
2022/07/05 04:40:20;;;;;;;10.27;6.20;;;;;;;15.08;100.00;102040.28;5073885;28;20517;-50
2022/07/05 04:42:48;;;;;;;11.13;6.22;;;;;;;15.14;100.00;102041.69;5072737;28;20094;-51
2022/07/05 04:45:16;;;;;;;10.85;6.38;;;;;;;15.13;100.00;102046.09;5071345;28;20052;-49
2022/07/05 04:47:45;;;;;;;10.20;6.28;;;;;;;15.17;100.00;102052.06;5069500;28;20057;-58
2022/07/05 04:50:13;;;;;;;9.40;6.40;;;;;;;15.23;100.00;102048.16;5072513;28;20071;-58
2022/07/05 04:52:42;;;;;;;13.98;7.15;;;;;;;15.29;100.00;102048.59;5073395;28;20041;-50
2022/07/05 04:55:10;;;;;;;11.20;7.05;;;;;;;15.30;100.00;102047.66;5070909;28;20052;-50
2022/07/05 04:57:39;;;;;;;10.82;7.20;;;;;;;15.30;100.00;102047.66;5068417;28;20052;-52
2022/07/05 05:00:09;;;;;;;9.68;6.63;;;;;;;15.38;100.00;102047.16;5071199;28;20060;-58
2022/07/05 05:02:38;;;;;;;11.68;7.13;;;;;;;15.42;100.00;102051.31;5072704;28;20438;-53
2022/07/05 05:05:08;;;;;;;10.52;6.78;;;;;;;15.47;100.00;102045.69;5068564;28;20079;-51
2022/07/05 05:07:39;;;;;;;11.15;7.63;;;;;;;15.51;100.00;102050.66;5071698;28;20491;-58
2022/07/05 05:10:08;;;;;;;11.75;7.05;;;;;;;15.60;100.00;102053.66;5069992;28;20377;-57
2022/07/05 05:12:36;;;;;;;14.50;7.00;;;;;;;15.66;100.00;102047.94;5070714;28;20040;-57
2022/07/05 05:15:08;;;;;;;12.23;7.00;;;;;;;15.75;100.00;102047.34;5072199;28;20108;-52
2022/07/05 05:17:37;;;;;;;11.30;7.55;;;;;;;15.80;100.00;102050.56;5072788;28;20098;-51
2022/07/05 05:20:12;;;;;;;13.38;7.68;;;;;;;15.89;100.00;102051.72;5072241;28;20045;-57
2022/07/05 05:22:40;;;;;;;14.60;7.72;;;;;;;15.97;100.00;102049.38;5065307;28;20045;-48
2022/07/05 05:25:09;;;;;;;13.70;7.72;;;;;;;16.02;100.00;102055.22;5071725;28;20115;-47
2022/07/05 05:27:41;;;;;;;13.32;7.85;;;;;;;16.08;100.00;102053.94;5069556;28;20040;-58
2022/07/05 05:30:16;;;;;;;14.32;8.65;;;;;;;16.14;100.00;102052.66;5069001;28;20056;-58
2022/07/05 05:32:44;;;;;;;14.90;8.32;;;;;;;16.18;100.00;102056.81;5071518;28;20106;-57
2022/07/05 05:35:14;;;;;;;12.25;8.27;;;;;;;16.21;100.00;102061.88;5072375;28;20036;-58
2022/07/05 05:37:49;;;;;;;14.98;9.18;;;;;;;16.22;100.00;102066.25;5072910;28;20545;-58
2022/07/05 05:40:17;;;;;;;13.27;9.25;;;;;;;16.31;100.00;102068.25;5070863;28;20047;-58
2022/07/05 05:42:45;;;;;;;13.98;9.45;;;;;;;16.34;100.00;102075.16;5069791;28;20044;-53
2022/07/05 05:45:14;;;;;;;13.13;9.20;;;;;;;16.38;100.00;102076.66;5072728;28;20487;-57
2022/07/05 05:47:47;;;;;;;14.18;9.35;;;;;;;16.46;100.00;102069.00;5072565;28;20389;-48
2022/07/05 05:50:18;;;;;;;;;;;;;;;16.42;99.66;102071.97;5070093;28;20063;-58
2022/07/05 05:52:47;;;;;;;14.95;10.15;;;;;;;16.52;99.22;102073.00;5067894;28;19920;-59
2022/07/05 05:55:15;;;;;;;14.60;10.82;;;;;;;16.54;98.86;102073.78;5072623;28;20057;-58
2022/07/05 05:57:43;;;;;;;15.30;10.60;;;;;;;16.66;98.38;102078.19;5072757;28;20117;-57
2022/07/05 06:00:13;;;;;;;15.18;10.98;;;;;;;16.68;98.40;102078.94;5070724;28;20051;-50
2022/07/05 06:02:42;;;;;;;15.80;10.90;;;;;;;16.72;98.16;102083.06;5071760;28;20153;-52
2022/07/05 06:05:10;;;;;;;16.17;11.20;;;;;;;16.75;96.67;102079.34;5067698;28;20071;-51
2022/07/05 06:07:48;;;;;;;14.68;10.30;;;;;;;16.68;95.54;102084.22;5067965;28;20087;-57
2022/07/05 06:10:19;;;;;;;17.83;10.82;;;;;;;16.86;95.48;102086.53;5069670;28;20048;-52
2022/07/05 06:12:48;;;;;;;15.68;10.15;;;;;;;17.06;95.37;102085.13;5067687;28;20053;-58
2022/07/05 06:15:16;;;;;;;20.42;11.63;;;;;;;17.12;94.30;102092.63;5071462;28;20128;-52
2022/07/05 06:17:44;;;;;;;17.15;10.93;;;;;;;17.21;92.61;102093.78;5068659;28;20056;-50
2022/07/05 06:20:14;;;;;;;16.63;11.20;;;;;;;17.28;91.45;102087.03;5069135;28;20051;-59
2022/07/05 06:22:42;;;;;;;14.27;10.70;;;;;;;17.28;92.00;102095.00;5075824;28;20036;-57
2022/07/05 06:25:12;;;;;;;17.45;11.45;;;;;;;17.33;92.78;102092.88;5076614;28;20106;-58
2022/07/05 06:27:51;;;;;;;16.60;11.68;;;;;;;17.44;92.08;102092.06;5074916;28;20041;-52
2022/07/05 06:30:21;;;;;;;15.07;10.60;;;;;;;17.58;89.23;102091.03;5076024;28;20037;-58
2022/07/05 06:32:50;;;;;;;14.05;9.73;;;;;;;17.69;89.92;102091.06;5074299;28;20079;-55
2022/07/05 06:35:18;;;;;;;14.15;9.80;;;;;;;17.82;90.70;102101.63;5076189;28;21011;-52
2022/07/05 06:37:48;;;;;;;13.20;8.38;;;;;;;17.86;87.93;102092.44;5074797;28;20048;-50
2022/07/05 06:40:23;;;;;;;15.63;7.18;;;;;;;17.99;86.83;102103.00;5076290;28;20045;-57
2022/07/05 06:42:53;;;;;;;10.73;7.28;;;;;;;18.04;85.30;102100.84;5076025;28;20052;-58
2022/07/05 06:45:21;;;;;;;10.70;6.65;;;;;;;18.11;84.57;102105.72;5076806;28;20041;-57
2022/07/05 06:47:55;;;;;;;13.07;6.30;;;;;;;18.31;85.31;102102.34;5075796;28;20048;-52
2022/07/05 06:50:23;;;;;;;14.65;7.00;;;;;;;18.48;85.23;102108.16;5074148;28;20496;-57
2022/07/05 06:52:51;;;;;;;10.77;7.10;;;;;;;18.66;84.25;102101.34;5074884;28;20048;-58
2022/07/05 06:55:21;;;;;;;10.52;6.55;;;;;;;18.87;84.16;102112.13;5075706;28;20041;-58
2022/07/05 06:57:50;;;;;;;11.18;6.60;;;;;;;19.05;81.81;102111.63;5076129;28;20079;-58
2022/07/05 07:00:39;;;;;;;12.48;6.28;;;;;;;19.24;79.03;102106.47;5075330;28;20127;-49
2022/07/05 07:03:27;;;;;;;13.40;5.82;;;;;;;19.33;78.62;102102.19;5075752;28;20136;-57
2022/07/05 07:06:16;;;;;;;11.30;5.22;;;;;;;19.43;77.26;102108.47;5072645;28;20080;-49
2022/07/05 07:11:31;;;;;;;9.35;4.60;;;;;;;19.58;74.10;102116.19;5075821;28;20518;-52
2022/07/05 07:13:59;;;;;;;9.88;4.57;;;;;;;19.72;74.51;102115.84;5075352;28;20070;-49
2022/07/05 07:16:27;;;;;;;9.73;5.03;;;;;;;19.93;73.68;102115.03;5075829;28;20055;-57
2022/07/05 07:18:56;;;;;;;9.55;4.78;;;;;;;20.12;73.20;102114.31;5074185;28;20139;-57
2022/07/05 07:21:40;;;;;;;10.52;5.03;;;;;;;20.06;71.21;102112.19;5075351;28;20124;-56
2022/07/05 07:24:09;;;;;;;9.07;4.70;;;;;;;20.03;71.83;102117.78;5071056;28;20452;-53
2022/07/05 07:29:21;;;;;;;8.00;4.15;;;;;;;20.33;71.09;102119.63;5075190;28;20044;-57
2022/07/05 07:31:49;;;;;;;8.95;4.95;;;;;;;20.53;70.19;102119.72;5074910;28;20033;-53
2022/07/05 07:34:17;;;;;;;8.93;4.80;;;;;;;20.64;70.16;102122.28;5072312;28;20541;-51
2022/07/05 07:36:45;;;;;;;9.15;5.30;;;;;;;20.58;71.85;102117.50;5071120;28;20127;-52
2022/07/05 07:39:14;;;;;;;11.00;5.68;;;;;;;20.83;69.92;102115.34;5074961;28;20044;-58
2022/07/05 07:41:43;;;;;;;10.85;6.13;;;;;;;20.86;66.81;102123.94;5070024;28;20044;-52
2022/07/05 07:44:11;;;;;;;12.70;5.70;;;;;;;20.99;67.35;102118.31;5072170;28;20048;-50
2022/07/05 07:46:40;;;;;;;9.35;4.70;;;;;;;21.24;66.91;102124.13;5075039;28;20063;-57
2022/07/05 07:49:09;;;;;;;8.18;4.65;;;;;;;21.50;66.24;102124.44;5075080;28;20053;-57
2022/07/05 07:51:38;;;;;;;10.63;5.20;;;;;;;21.72;65.30;102127.81;5074896;28;20059;-57
2022/07/05 07:54:07;;;;;;;9.13;5.18;;;;;;;21.94;61.53;102121.34;5075060;28;20047;-58
2022/07/05 07:56:37;;;;;;;10.15;4.60;;;;;;;22.07;63.31;102119.19;5075086;28;20501;-58
2022/07/05 07:59:07;;;;;;;9.40;4.75;;;;;;;22.23;61.41;102123.09;5074851;28;20122;-58
2022/07/05 08:01:35;;;;;;;8.05;4.78;;;;;;;22.22;58.32;102116.03;5074231;28;20053;-57
2022/07/05 08:04:12;;;;;;;7.75;4.45;;;;;;;22.28;61.06;102123.50;5074699;28;20044;-58
2022/07/05 08:06:41;;;;;;;10.18;5.20;;;;;;;22.54;59.77;102123.69;5075030;28;20415;-49
2022/07/05 08:09:10;;;;;;;7.95;3.92;;;;;;;22.82;59.36;102120.16;5074109;28;20123;-51
2022/07/05 08:11:44;;;;;;;10.70;4.90;;;;;;;22.93;57.78;102123.50;5072846;28;20048;-57
2022/07/05 08:14:13;;;;;;;6.07;3.53;;;;;;;22.93;56.52;102123.50;5074662;28;20399;-48
2022/07/05 08:16:42;;;;;;;7.43;4.10;;;;;;;22.78;56.60;102117.81;5074377;28;20503;-50
2022/07/05 08:22:07;;;;;;;9.27;3.80;;;;;;;22.87;58.05;102124.09;5073969;28;20060;-57
2022/07/05 08:24:36;;;;;;;9.68;3.65;;;;;;;23.07;56.74;102135.53;5074120;28;20033;-49
2022/07/05 08:27:04;;;;;;;7.85;3.70;;;;;;;23.32;54.89;102138.50;5073714;28;20071;-57
2022/07/05 08:29:34;;;;;;;8.93;3.40;;;;;;;23.45;54.36;102133.59;5074108;28;20373;-57
2022/07/05 08:32:03;;;;;;;7.72;3.70;;;;;;;23.68;52.88;102126.91;5072887;28;20063;-49
2022/07/05 08:34:32;;;;;;;7.50;3.08;;;;;;;23.58;52.21;102127.00;5071562;28;20141;-55
2022/07/05 08:37:00;;;;;;;7.88;3.97;;;;;;;23.72;53.07;102121.06;5072986;28;20427;-47
2022/07/05 08:39:29;;;;;;;6.25;3.75;;;;;;;23.84;53.45;102120.81;5073887;28;20076;-56
2022/07/05 08:41:59;;;;;;;9.93;4.18;;;;;;;23.73;53.99;102119.22;5073439;28;20098;-51
2022/07/05 08:44:29;;;;;;;7.28;3.17;;;;;;;23.85;53.18;102125.19;5071671;28;20072;-51
2022/07/05 08:46:59;;;;;;;7.75;3.20;;;;;;;23.88;55.50;102124.88;5073610;28;20040;-57
2022/07/05 08:49:28;;;;;;;6.60;3.75;;;;;;;23.82;53.76;102117.44;5071031;28;20824;-50
2022/07/05 08:51:59;;;;;;;8.50;3.80;;;;;;;23.77;53.70;102125.97;5070607;28;20408;-56
2022/07/05 08:54:28;;;;;;;6.53;3.28;;;;;;;23.90;54.04;102126.44;5072466;28;20045;-56
2022/07/05 08:56:57;;;;;;;8.25;3.40;;;;;;;23.96;52.87;102127.66;5068569;28;20048;-56
2022/07/05 08:59:42;;;;;;;8.73;3.70;;;;;;;23.90;54.46;102128.25;5072123;28;20143;-52
2022/07/05 09:02:16;;;;;;;5.68;2.90;;;;;;;24.15;54.99;102118.53;5073026;28;20102;-57
2022/07/05 09:04:46;;;;;;;10.27;4.40;;;;;;;24.26;52.26;102115.56;5073373;28;20090;-56
2022/07/05 09:07:18;;;;;;;7.10;3.43;;;;;;;24.18;51.54;102120.91;5070519;28;20044;-57
2022/07/05 09:09:51;;;;;;;8.30;3.30;;;;;;;24.24;51.36;102114.03;5071830;28;20385;-56
2022/07/05 09:12:20;;;;;;;7.82;3.65;;;;;;;23.99;52.40;102123.81;5070649;28;20093;-50
2022/07/05 09:14:54;;;;;;;6.20;3.25;;;;;;;23.98;53.92;102114.06;5070122;28;20067;-55
2022/07/05 09:17:25;;;;;;;6.43;2.85;;;;;;;24.30;52.62;102118.78;5072548;28;20443;-57
2022/07/05 09:20:12;;;;;;;6.23;3.33;;;;;;;24.55;49.42;102122.41;5072496;28;20049;-48
2022/07/05 09:22:45;;;;;;;8.43;3.85;;;;;;;24.87;47.47;102111.97;5072810;28;20060;-51
2022/07/05 09:25:22;;;;;;;7.20;3.58;;;;;;;25.19;48.35;102124.66;5073088;28;20534;-56
2022/07/05 09:27:55;;;;;;;5.95;3.20;;;;;;;25.05;48.28;102122.63;5067869;28;20399;-49
2022/07/05 09:30:34;;;;;;;7.13;2.97;;;;;;;25.40;47.98;102121.53;5071177;28;20056;-48
2022/07/05 09:33:08;;;;;;;11.27;4.03;;;;;;;24.69;47.92;102122.84;5070703;28;20036;-50
2022/07/05 09:35:37;;;;;;;8.27;4.13;;;;;;;24.92;48.21;102115.00;5070134;28;20067;-47
2022/07/05 09:38:07;;;;;;;5.85;3.20;;;;;;;24.76;44.93;102118.47;5072049;28;20049;-49
2022/07/05 09:40:48;;;;;;;4.07;1.90;;;;;;;24.80;43.77;102111.78;5072630;28;20044;-52
2022/07/05 09:43:17;;;;;;;5.63;2.25;;;;;;;24.68;41.67;102116.63;5072574;28;20484;-46
2022/07/05 09:45:56;;;;;;;4.45;2.13;;;;;;;24.51;42.90;102117.53;5070311;28;20045;-51
2022/07/05 09:48:26;;;;;;;5.20;1.50;;;;;;;24.59;43.34;102120.25;5068896;28;20037;-56
2022/07/05 09:51:06;;;;;;;4.78;1.75;;;;;;;24.41;44.28;102121.19;5072377;28;20057;-47
2022/07/05 09:53:56;;;;;;;3.42;1.65;;;;;;;24.43;43.05;102126.41;5072145;28;20058;-54
2022/07/05 09:56:29;;;;;;;5.65;2.13;;;;;;;23.87;42.46;102128.56;5070108;28;20048;-55
2022/07/05 09:59:13;;;;;;;4.85;1.42;;;;;;;23.86;43.36;102137.59;5072345;28;20056;-48
2022/07/05 10:01:41;;;;;;;4.78;1.60;;;;;;;23.77;44.67;102132.16;5072484;28;20411;-47
2022/07/05 10:04:10;;;;;;;3.95;1.65;;;;;;;23.72;45.88;102145.22;5070746;28;20049;-55
2022/07/05 10:06:39;;;;;;;4.53;1.85;;;;;;;23.78;45.68;102146.47;5069196;28;20044;-55
2022/07/05 10:09:09;;;;;;;5.47;2.88;;;;;;;23.55;47.17;102148.78;5071350;28;20051;-55
2022/07/05 10:11:41;;;;;;;7.72;2.97;;;;;;;23.57;48.89;102141.41;5072131;28;20430;-51
2022/07/05 10:14:15;;;;;;;6.93;3.42;;;;;;;23.25;49.22;102138.28;5072195;28;20036;-56
2022/07/05 10:16:53;;;;;;;6.10;3.00;;;;;;;23.42;48.81;102143.78;5071021;28;20048;-54
2022/07/05 10:19:24;;;;;;;6.35;3.33;;;;;;;24.01;49.25;102140.59;5068486;28;20503;-49
2022/07/05 10:21:53;;;;;;;7.13;3.40;;;;;;;24.37;47.38;102133.25;5071549;28;20426;-51
2022/07/05 10:24:41;;;;;;;7.10;2.72;;;;;;;24.69;46.83;102129.09;5072067;28;20452;-57
2022/07/05 10:27:10;;;;;;;9.73;2.80;;;;;;;25.00;47.25;102120.41;5072288;28;20084;-51
2022/07/05 10:29:40;;;;;;;6.93;2.58;;;;;;;25.03;45.82;102122.75;5072011;28;20657;-55
2022/07/05 10:32:10;;;;;;;3.50;2.10;;;;;;;25.13;43.03;102120.78;5071994;28;20101;-50
2022/07/05 10:34:41;;;;;;;6.25;2.35;;;;;;;25.14;42.85;102118.91;5068669;28;20098;-49
2022/07/05 10:37:27;;;;;;;5.90;2.35;;;;;;;25.61;43.04;102120.16;5070252;28;20045;-56
2022/07/05 10:39:58;;;;;;;5.95;2.55;;;;;;;26.12;42.02;102120.81;5069001;28;20104;-51
2022/07/05 10:42:34;;;;;;;6.15;2.70;;;;;;;26.44;42.62;102124.41;5066963;28;20036;-52
2022/07/05 10:45:03;;;;;;;9.40;2.80;;;;;;;26.74;42.68;102116.53;5070368;28;20102;-56
2022/07/05 10:47:32;;;;;;;6.43;2.70;;;;;;;26.40;42.55;102125.75;5071764;28;20044;-57
2022/07/05 10:50:04;;;;;;;5.63;2.20;;;;;;;26.38;41.32;102121.56;5071720;28;20071;-55
2022/07/05 10:52:33;;;;;;;4.83;2.27;;;;;;;25.94;41.25;102109.34;5071806;28;20052;-47
2022/07/05 10:55:23;;;;;;;7.57;2.42;;;;;;;25.59;41.99;102111.41;5071523;28;20484;-52
2022/07/05 10:58:22;;;;;;;7.68;2.72;;;;;;;25.80;41.18;102103.63;5068302;28;20075;-56
2022/07/05 11:01:43;;;;;;;6.35;2.58;;;;;;;26.48;42.89;102103.31;5066020;28;20105;-56
2022/07/05 11:04:33;;;;;;;5.10;2.35;;;;;;;26.54;42.07;102108.00;5068075;28;20090;-48
2022/07/05 11:07:04;;;;;;;6.38;2.72;;;;;;;26.80;42.93;102105.03;5071167;28;20052;-50
2022/07/05 11:09:32;;;;;;;6.70;2.58;;;;;;;26.86;41.30;102102.63;5072494;28;20055;-54
2022/07/05 11:12:08;;;;;;;7.47;2.30;;;;;;;27.01;40.65;102105.41;5070423;28;20056;-56
2022/07/05 11:15:06;;;;;;;6.68;2.50;;;;;;;26.78;42.11;102100.84;5073703;28;20040;-55
2022/07/05 11:17:36;;;;;;;5.20;2.20;;;;;;;27.22;40.53;102104.78;5071306;28;20379;-56
2022/07/05 11:20:31;;;;;;;5.90;1.80;;;;;;;27.25;38.51;102110.63;5074282;28;20083;-55
2022/07/05 11:23:07;;;;;;;3.65;1.70;;;;;;;26.95;38.78;102101.56;5071817;28;20055;-54
2022/07/05 11:25:37;;;;;;;5.72;2.15;;;;;;;26.69;39.76;102102.69;5073068;28;20071;-48
2022/07/05 11:28:08;;;;;;;4.75;2.28;;;;;;;26.56;40.20;102103.28;5074898;28;20728;-48
2022/07/05 11:31:00;;;;;;;4.45;1.70;;;;;;;26.99;41.26;102108.28;5071889;28;20052;-48
2022/07/05 11:33:40;;;;;;;5.43;2.40;;;;;;;27.01;41.04;102102.72;5058406;28;20056;-50
2022/07/05 11:36:22;;;;;;;3.63;1.92;;;;;;;27.55;40.78;102113.47;5074915;28;20047;-56
2022/07/05 11:39:17;;;;;;;5.73;2.37;;;;;;;28.03;41.10;102109.66;5074818;28;20040;-54
2022/07/05 11:41:47;;;;;;;5.13;2.20;;;;;;;28.36;39.01;102099.31;5060842;28;20839;-56
2022/07/05 11:44:15;;;;;;;5.20;2.10;;;;;;;28.74;37.58;102098.31;5074763;28;20098;-55
2022/07/05 11:46:45;;;;;;;5.03;2.33;;;;;;;28.58;36.82;102097.50;5073402;28;20080;-55
2022/07/05 11:49:24;;;;;;;5.00;1.80;;;;;;;28.13;36.53;102092.13;5071379;28;20491;-52
2022/07/05 11:51:57;;;;;;;5.93;2.10;;;;;;;27.73;37.72;102099.66;5070780;28;20056;-51